Aérodrome :
LOGIN :

S'inscrire | Disclaimer

   EN    FR    IT 

 










Légende :    VFR   VFR Marginal   IFR   IFR Intensif   IFR Très Intensif
Visi : 
Plafond : 
>= 8 km
>= 3000ft
5 à 8 km
1000 à 3000 ft
1500m à 5 km
500 à 1000 ft
800 à 1500m
200 à 500 ft
< 800m
< 200 ft
Symboles :   Orages  Brouillard  Fortes neiges  Fortes précipitations  Vent > 20 kt
SIGMETs :   Divers  Orages  Givrage  Turbulence  Onde Orograph.  Cendres Volcan.







- Altitude de l'aérodrome : 119 ft
- Code IATA : WAT


EIWF - Waterford

DERNIER METAR :
  • 131300Z 30016G34KT 250V340 9999 SCT019 07/02 Q0995

METARs EXPIRÉS :
  • 131230Z 31011KT 280V350 9999 SCT034 07/02 Q0996
  • 131200Z 30015G25KT 270V340 9999 VCSH SCT018CB SCT027 07/03 Q0996
  • 131130Z 31019G32KT 280V340 9999 SCT027 08/03 Q0996
  • 131100Z 30016KT 270V330 9999 SCT023 08/03 Q0996
  • 131030Z 31012G22KT 270V340 9999 SCT017 SCT031 07/04 Q0996 RERA

TAF TAF EIWF
Valide du 13 à 12h jusqu'au 13 à 21h UTC


131100Z 1312/1321 30016KT 9999 SCT020
BECMG 1313/1315 26020G32KT
TEMPO 1314/1321 5000 SHRAGS BKN010 BKN020CB
BECMG 1316/1318 27017KT
ATIS : +353 51 877 000
Pas de NOTAMs connus pour ce terrain.
1 SIGMET publié pour la FIR Shannon (EISN) :
 
Orages noyés dans la masse avec grêle
EISN SIGMET 01 VALID 131300/131600 EINN
EISN SHANNON FIR/UIR EMBD TSGR FCST WITHIN N5410 W01000 - N5100 W01000 - N5200 W00700 - N5400 W00700 - N5410 W01000 TOP FL350 MOV SE AT 40KT NC=



MET'MAP, la Météo Aéronautique d'un coup d'oeil ! - Copyright ORBIFLY Décembre 2007 - Disclaimer

ORBIFLY MET'MAP TEAM :

Programmation & Développement : Alexandra Zaïnal
Conception & Développement : Baudouin d'Aumeries
Co-Programmation & Développement : Marc-Olivier Méhu
Soutien technique & logistique : Manuel Goepfert

Contact : metmap@orbifly.com




SOURCES & CREDITS :

   NOAA